Time;durP1;ratioP1;P1;durP2;ratioP2;P2;SDS_P1;SDS_P2;PMS_P1;PMS_P2;Temp;Humidity;BMP_temperature;BMP_pressure;BME280_temperature;BME280_humidity;BME280_pressure;Samples;Min_cycle;Max_cycle;Signal;HPM_P1;HPM_P2
2021/07/13 00:01:00;;;;;;;;;7.00;6.00;;;;;19.20;68.32;100663.56;5073600;27;45417;-64
2021/07/13 00:03:25;;;;;;;;;7.00;6.75;;;;;19.23;68.64;100671.31;5073312;27;45555;-64
2021/07/13 00:05:51;;;;;;;;;8.50;8.50;;;;;19.26;68.54;100675.63;5076089;27;45565;-64
2021/07/13 00:08:16;;;;;;;;;4.50;4.00;;;;;19.24;68.53;100670.41;5077476;27;45424;-65
2021/07/13 00:10:43;;;;;;;;;6.50;5.50;;;;;19.26;68.25;100667.66;5077026;28;45422;-64
2021/07/13 00:13:08;;;;;;;;;8.00;6.75;;;;;19.27;68.50;100661.41;5077453;28;45421;-64
2021/07/13 00:15:39;;;;;;;;;7.25;6.75;;;;;19.27;68.06;100658.75;5076847;27;45394;-65
2021/07/13 00:18:05;;;;;;;;;10.00;8.75;;;;;19.24;68.18;100665.09;5076506;27;46519;-64
2021/07/13 00:20:31;;;;;;;;;9.50;9.00;;;;;19.24;68.14;100657.13;5076403;27;45441;-64
2021/07/13 00:22:57;;;;;;;;;11.00;10.00;;;;;19.23;67.86;100641.28;5076545;28;45481;-64
2021/07/13 00:25:24;;;;;;;;;12.75;10.75;;;;;19.25;68.15;100647.38;5077406;27;45453;-64
2021/07/13 00:27:49;;;;;;;;;12.50;11.00;;;;;19.26;68.23;100649.09;5076930;27;47220;-64
2021/07/13 00:30:17;;;;;;;;;10.50;10.25;;;;;19.27;68.28;100662.25;5076212;28;47207;-64
2021/07/13 00:32:43;;;;;;;;;12.75;12.25;;;;;19.25;68.03;100657.97;5076963;27;45395;-64
2021/07/13 00:35:09;;;;;;;;;14.50;12.50;;;;;19.22;68.13;100661.66;5076779;27;45536;-63
2021/07/13 00:37:35;;;;;;;;;13.50;12.00;;;;;19.20;68.44;100652.94;5073237;28;49255;-64
2021/07/13 00:40:00;;;;;;;;;13.50;12.50;;;;;19.19;68.25;100643.28;5077189;27;45481;-63
2021/07/13 00:42:26;;;;;;;;;12.00;11.00;;;;;19.17;68.30;100639.00;5076785;27;45535;-63
2021/07/13 00:44:51;;;;;;;;;10.25;10.25;;;;;19.14;68.22;100632.09;5074614;28;45408;-64
2021/07/13 00:47:22;;;;;;;;;13.25;13.25;;;;;19.14;68.21;100626.78;5076893;28;46545;-63
2021/07/13 00:49:48;;;;;;;;;16.25;15.25;;;;;19.13;68.44;100618.88;5076528;27;45448;-63
2021/07/13 00:52:15;;;;;;;;;12.50;12.50;;;;;19.14;68.29;100612.63;5077698;27;45311;-63
2021/07/13 00:54:46;;;;;;;;;16.50;13.75;;;;;19.17;68.47;100607.16;5076911;28;45386;-63
2021/07/13 00:57:13;;;;;;;;;16.00;14.50;;;;;19.17;68.19;100609.81;5075960;27;46170;-63
2021/07/13 00:59:40;;;;;;;;;18.75;14.25;;;;;19.16;68.42;100613.41;5076868;27;45465;-63
2021/07/13 01:02:08;;;;;;;;;18.25;14.00;;;;;19.16;68.30;100624.84;5076431;27;45393;-63
2021/07/13 01:04:35;;;;;;;;;17.00;14.00;;;;;19.13;68.15;100627.69;5076891;28;45509;-65
2021/07/13 01:07:24;;;;;;;;;14.75;14.00;;;;;19.09;68.09;100628.81;5076497;27;47519;-63
2021/07/13 01:10:08;;;;;;;;;16.75;16.75;;;;;19.05;68.31;100628.16;5076463;28;45377;-64
2021/07/13 01:12:54;;;;;;;;;19.50;16.50;;;;;19.03;68.48;100619.41;5076776;27;45319;-64
2021/07/13 01:15:22;;;;;;;;;20.00;17.50;;;;;19.04;68.12;100601.69;5076544;27;45440;-62
2021/07/13 01:18:00;;;;;;;;;16.50;15.75;;;;;19.08;68.01;100603.22;5075199;27;45384;-63
2021/07/13 01:20:44;;;;;;;;;19.25;18.25;;;;;19.10;68.33;100594.25;5076589;27;45434;-63
2021/07/13 01:23:28;;;;;;;;;21.75;19.75;;;;;19.13;68.15;100619.75;5061850;28;45507;-63
2021/07/13 01:26:30;;;;;;;;;16.50;16.25;;;;;19.11;67.98;100613.66;5076599;28;45636;-63
2021/07/13 01:29:00;;;;;;;;;19.00;17.00;;;;;19.10;67.84;100619.91;5075927;28;45448;-63
2021/07/13 01:31:27;;;;;;;;;25.25;21.25;;;;;19.08;68.17;100614.69;5076647;27;45503;-62
2021/07/13 01:33:59;;;;;;;;;36.00;28.25;;;;;19.09;68.56;100594.31;5076272;28;45473;-63
2021/07/13 01:36:31;;;;;;;;;35.25;28.75;;;;;19.07;68.04;100588.28;5075904;27;45414;-63
2021/07/13 01:38:59;;;;;;;;;30.75;27.00;;;;;19.05;68.07;100591.00;5076008;28;45504;-63
2021/07/13 01:41:28;;;;;;;;;17.75;16.50;;;;;19.05;68.11;100601.63;5075605;27;45537;-62
2021/07/13 01:43:55;;;;;;;;;18.00;15.75;;;;;19.03;68.21;100606.16;5076166;28;45493;-63
2021/07/13 01:46:22;;;;;;;;;21.25;19.00;;;;;19.01;68.19;100616.00;5076381;27;45375;-63
2021/07/13 01:48:50;;;;;;;;;17.25;17.25;;;;;18.99;67.93;100609.91;5075905;28;46628;-63
2021/07/13 01:51:18;;;;;;;;;16.75;15.00;;;;;18.98;68.15;100624.13;5075883;27;47444;-62
2021/07/13 01:53:46;;;;;;;;;27.00;21.25;;;;;18.96;68.17;100630.47;5075717;27;45691;-63
2021/07/13 01:56:13;;;;;;;;;19.25;16.75;;;;;18.97;68.06;100633.00;5075711;27;45607;-62
2021/07/13 01:58:41;;;;;;;;;21.25;17.75;;;;;18.98;68.27;100632.09;5075346;28;45645;-63
2021/07/13 02:01:29;;;;;;;;;20.00;18.75;;;;;19.02;68.21;100623.03;5075875;27;45279;-63
2021/07/13 02:03:55;;;;;;;;;17.25;15.75;;;;;19.05;67.78;100604.25;5075422;28;45378;-63
2021/07/13 02:06:24;;;;;;;;;16.00;14.00;;;;;19.06;67.70;100608.63;5075555;27;45335;-63
2021/07/13 02:08:52;;;;;;;;;17.75;16.00;;;;;19.07;67.87;100613.00;5075492;27;46411;-63
2021/07/13 02:11:18;;;;;;;;;15.25;15.00;;;;;19.09;68.01;100623.50;5075419;27;45555;-64
2021/07/13 02:13:44;;;;;;;;;17.25;17.00;;;;;19.11;67.65;100618.97;5075657;28;45451;-63
2021/07/13 02:16:09;;;;;;;;;16.00;15.00;;;;;19.12;67.54;100619.84;5075665;27;45560;-63
2021/07/13 02:18:35;;;;;;;;;30.00;25.00;;;;;19.11;68.05;100621.63;5075408;27;46580;-63
2021/07/13 02:21:01;;;;;;;;;14.25;13.25;;;;;19.12;67.72;100625.16;5075554;27;45527;-63
2021/07/13 02:23:26;;;;;;;;;15.00;14.00;;;;;19.08;67.99;100624.47;5075765;27;45418;-62
2021/07/13 02:25:55;;;;;;;;;17.75;14.75;;;;;19.08;67.90;100617.34;5075639;27;45366;-63
2021/07/13 02:28:42;;;;;;;;;17.00;16.00;;;;;19.10;67.74;100611.97;5075696;27;46420;-63
2021/07/13 02:31:15;;;;;;;;;17.50;14.50;;;;;19.10;67.62;100599.53;5074777;28;46144;-63
2021/07/13 02:33:48;;;;;;;;;16.00;13.00;;;;;19.12;68.29;100593.31;5075577;28;45667;-63
2021/07/13 02:36:17;;;;;;;;;12.25;12.25;;;;;19.12;67.80;100610.09;5075062;27;45362;-62
2021/07/13 02:38:45;;;;;;;;;13.25;12.75;;;;;19.12;67.46;100609.22;5074738;27;46309;-63
2021/07/13 02:41:13;;;;;;;;;16.50;13.25;;;;;19.09;67.59;100615.53;5075079;27;45444;-62
2021/07/13 02:43:39;;;;;;;;;14.00;12.75;;;;;19.03;67.46;100624.72;5074919;28;45297;-63
2021/07/13 02:46:05;;;;;;;;;14.75;12.75;;;;;19.01;67.71;100623.09;5075830;27;45164;-63
2021/07/13 02:48:34;;;;;;;;;12.25;12.25;;;;;19.00;68.08;100618.75;5081694;27;48568;-63
2021/07/13 02:51:00;;;;;;;;;11.50;11.50;;;;;18.98;67.80;100613.53;5074286;28;45403;-63
2021/07/13 02:53:27;;;;;;;;;16.00;14.75;;;;;18.98;68.16;100607.38;5074385;27;45576;-62
2021/07/13 02:55:54;;;;;;;;;11.50;11.50;;;;;18.98;68.14;100610.88;5074436;28;45338;-63
2021/07/13 02:58:21;;;;;;;;;21.50;17.00;;;;;18.96;68.20;100602.13;5073202;28;47208;-63
2021/07/13 03:00:47;;;;;;;;;16.00;15.00;;;;;18.92;68.30;100611.22;5074447;28;45424;-63
2021/07/13 03:03:14;;;;;;;;;16.25;13.50;;;;;18.89;68.53;100609.59;5074017;27;45509;-63
2021/07/13 03:05:41;;;;;;;;;18.00;17.00;;;;;18.89;68.68;100622.84;5074009;28;45440;-62
2021/07/13 03:08:06;;;;;;;;;18.25;14.25;;;;;18.88;68.70;100615.00;5074169;27;46279;-63
2021/07/13 03:10:33;;;;;;;;;15.25;15.25;;;;;18.87;68.68;100614.13;5074346;28;45385;-63
2021/07/13 03:12:58;;;;;;;;;16.25;13.00;;;;;18.84;68.62;100616.09;5074309;27;45418;-63
2021/07/13 03:15:29;;;;;;;;;18.50;18.50;;;;;18.79;68.89;100619.00;5074266;27;45243;-63
2021/07/13 03:17:56;;;;;;;;;17.50;15.50;;;;;18.74;68.82;100625.50;5073967;27;45504;-63
2021/07/13 03:20:22;;;;;;;;;17.25;15.00;;;;;18.74;69.14;100630.81;5074339;28;45445;-63
2021/07/13 03:22:50;;;;;;;;;16.00;16.00;;;;;18.73;68.92;100626.41;5074226;28;45376;-63
2021/07/13 03:25:21;;;;;;;;;16.25;15.25;;;;;18.72;69.06;100628.22;5074823;27;45317;-63
2021/07/13 03:27:50;;;;;;;;;14.00;14.00;;;;;18.74;69.35;100615.75;5073727;27;45435;-63
2021/07/13 03:30:16;;;;;;;;;19.00;15.00;;;;;18.77;69.19;100612.94;5074039;27;45315;-63
2021/07/13 03:32:42;;;;;;;;;14.50;14.00;;;;;18.79;69.28;100608.41;5074599;27;45367;-63
2021/07/13 03:35:09;;;;;;;;;13.75;13.00;;;;;18.85;69.02;100601.88;5074805;27;45330;-63
2021/07/13 03:37:35;;;;;;;;;15.75;13.50;;;;;18.88;68.79;100594.63;5074339;28;45476;-63
2021/07/13 03:40:03;;;;;;;;;18.25;16.00;;;;;18.90;69.00;100602.47;5075863;28;45409;-63
2021/07/13 03:42:28;;;;;;;;;15.25;13.75;;;;;18.91;69.04;100601.56;5077509;27;45359;-63
2021/07/13 03:44:54;;;;;;;;;20.00;17.50;;;;;18.93;69.06;100601.47;5077979;28;45330;-63
2021/07/13 03:47:20;;;;;;;;;13.25;12.25;;;;;18.93;69.30;100594.38;5077914;27;47591;-63
2021/07/13 03:49:47;;;;;;;;;14.50;13.25;;;;;18.95;69.05;100597.78;5077896;28;45392;-63
2021/07/13 03:52:13;;;;;;;;;19.25;16.00;;;;;18.95;68.94;100589.84;5076423;28;45498;-63
2021/07/13 03:54:40;;;;;;;;;15.50;14.25;;;;;18.99;68.74;100596.66;5077890;28;45358;-63
2021/07/13 03:57:06;;;;;;;;;18.50;17.00;;;;;18.98;68.75;100597.59;5076715;27;46460;-63
2021/07/13 03:59:32;;;;;;;;;13.50;10.00;;;;;18.98;68.96;100602.91;5077243;27;46386;-63
2021/07/13 04:01:57;;;;;;;;;17.75;17.00;;;;;18.96;68.85;100606.59;5077854;28;45513;-63
2021/07/13 04:04:24;;;;;;;;;18.50;15.50;;;;;18.97;69.04;100605.63;5077008;27;45588;-64
2021/07/13 04:06:49;;;;;;;;;17.50;15.00;;;;;18.97;69.12;100601.19;5076788;28;46202;-63
2021/07/13 04:09:15;;;;;;;;;17.00;15.75;;;;;18.98;68.88;100600.25;5076934;28;45533;-63
2021/07/13 04:11:40;;;;;;;;;16.25;13.75;;;;;18.99;68.83;100601.09;5076612;27;45340;-64
2021/07/13 04:14:06;;;;;;;;;17.50;15.25;;;;;18.99;68.82;100607.25;5076923;27;45332;-63
2021/07/13 04:16:31;;;;;;;;;16.00;15.00;;;;;18.98;68.93;100604.72;5077453;28;45410;-62
2021/07/13 04:18:58;;;;;;;;;16.00;16.00;;;;;18.97;68.94;100606.50;5077112;28;45456;-62
2021/07/13 04:21:23;;;;;;;;;16.50;16.50;;;;;18.99;68.68;100598.44;5076919;28;45526;-63
2021/07/13 04:23:48;;;;;;;;;19.25;18.25;;;;;19.00;68.60;100603.69;5076526;27;45578;-63
2021/07/13 04:26:14;;;;;;;;;15.00;15.00;;;;;19.03;68.67;100597.34;5075660;27;45435;-63
2021/07/13 04:28:39;;;;;;;;;18.00;18.00;;;;;19.01;68.89;100600.06;5076575;28;45428;-63
2021/07/13 04:31:05;;;;;;;;;18.50;16.75;;;;;18.98;68.71;100602.06;5077029;27;45342;-62
2021/07/13 04:33:30;;;;;;;;;21.00;17.25;;;;;18.98;68.71;100600.25;5076741;27;45384;-63
2021/07/13 04:35:57;;;;;;;;;18.50;17.50;;;;;18.98;68.70;100600.25;5076404;27;45455;-63
2021/07/13 04:38:24;;;;;;;;;20.00;20.00;;;;;18.96;69.10;100601.28;5076243;27;45465;-63
2021/07/13 04:40:49;;;;;;;;;20.75;19.00;;;;;18.95;69.25;100604.88;5076048;28;45654;-63
2021/07/13 04:43:15;;;;;;;;;16.25;14.75;;;;;18.92;69.11;100611.22;5076975;27;45451;-63
2021/07/13 04:45:41;;;;;;;;;22.25;19.25;;;;;18.91;69.23;100614.81;5076554;27;45339;-63
2021/07/13 04:48:06;;;;;;;;;21.75;18.50;;;;;18.89;69.55;100606.94;5076540;27;45464;-63
2021/07/13 04:50:32;;;;;;;;;15.25;15.25;;;;;18.89;68.95;100611.38;5076015;27;45439;-63
2021/07/13 04:52:57;;;;;;;;;19.25;18.50;;;;;18.89;69.61;100604.28;5076169;28;45489;-63
2021/07/13 04:55:23;;;;;;;;;13.75;12.75;;;;;18.93;69.54;100604.97;5075545;27;45509;-63
2021/07/13 04:57:48;;;;;;;;;17.75;17.00;;;;;18.94;69.38;100606.69;5078307;27;45626;-63
2021/07/13 05:00:14;;;;;;;;;18.50;18.50;;;;;18.96;69.15;100598.63;5069937;28;45521;-63
2021/07/13 05:02:40;;;;;;;;;20.25;17.25;;;;;18.97;68.80;100601.19;5075568;27;45463;-64
2021/07/13 05:05:10;;;;;;;;;21.25;17.25;;;;;19.02;69.32;100600.91;5075442;27;45487;-64
2021/07/13 05:07:38;;;;;;;;;23.75;22.75;;;;;19.07;69.53;100602.38;5075770;28;45246;-65
2021/07/13 05:10:04;;;;;;;;;21.00;19.25;;;;;19.08;69.20;100604.09;5074686;28;45411;-65
2021/07/13 05:12:29;;;;;;;;;20.50;18.75;;;;;19.06;68.69;100608.63;5075790;28;45501;-64
2021/07/13 05:14:55;;;;;;;;;18.50;18.25;;;;;19.06;69.11;100616.56;5075403;28;49290;-64
2021/07/13 05:17:20;;;;;;;;;23.75;19.50;;;;;19.07;69.17;100609.50;5074042;28;46246;-64
2021/07/13 05:19:48;;;;;;;;;19.00;16.75;;;;;19.12;69.24;100611.88;5075954;28;45409;-64
2021/07/13 05:22:14;;;;;;;;;24.25;23.25;;;;;19.15;69.15;100611.69;5074098;28;45612;-64
2021/07/13 05:24:39;;;;;;;;;26.75;23.50;;;;;19.16;68.65;100622.19;5075120;27;45509;-63
2021/07/13 05:27:05;;;;;;;;;20.50;18.25;;;;;19.17;69.31;100621.28;5075495;27;46203;-63
2021/07/13 05:29:32;;;;;;;;;17.50;16.00;;;;;19.19;68.67;100623.84;5075659;27;45429;-64
2021/07/13 05:31:58;;;;;;;;;23.25;19.25;;;;;19.20;69.14;100625.56;5074910;28;45307;-65
2021/07/13 05:34:24;;;;;;;;;20.75;18.75;;;;;19.21;68.98;100637.88;5072327;27;45724;-64
2021/07/13 05:36:51;;;;;;;;;18.25;18.00;;;;;19.21;68.88;100629.91;5071947;27;45269;-63
2021/07/13 05:39:17;;;;;;;;;21.25;19.75;;;;;19.22;68.37;100636.94;5076613;27;45419;-63
2021/07/13 05:41:42;;;;;;;;;21.00;21.00;;;;;19.22;68.99;100640.44;5076285;27;46808;-62
2021/07/13 05:44:08;;;;;;;;;20.00;19.75;;;;;19.24;68.57;100641.22;5075531;27;46245;-62
2021/07/13 05:46:34;;;;;;;;;35.75;32.50;;;;;19.29;68.34;100648.91;5076488;28;45397;-62
2021/07/13 05:49:01;;;;;;;;;22.25;22.00;;;;;19.30;68.39;100647.94;5076822;28;45263;-63
2021/07/13 05:51:28;;;;;;;;;20.25;19.00;;;;;19.33;68.55;100641.59;5070086;28;45485;-64
2021/07/13 05:53:55;;;;;;;;;20.25;18.75;;;;;19.33;68.25;100645.13;5075268;27;46403;-64
2021/07/13 05:56:21;;;;;;;;;38.75;31.00;;;;;19.36;68.30;100644.94;5075015;27;45481;-64
2021/07/13 05:58:48;;;;;;;;;18.50;18.25;;;;;19.42;68.53;100649.88;5076025;28;45445;-64
2021/07/13 06:01:16;;;;;;;;;20.50;19.00;;;;;19.46;68.09;100646.09;5077139;27;45634;-65
2021/07/13 06:03:45;;;;;;;;;22.00;19.75;;;;;19.48;68.23;100635.41;5075426;27;46253;-63
2021/07/13 06:06:11;;;;;;;;;17.00;16.25;;;;;19.49;67.84;100637.97;5076199;27;45400;-63
2021/07/13 06:08:40;;;;;;;;;19.50;18.25;;;;;19.52;67.81;100637.78;5076292;27;45656;-64
2021/07/13 06:11:10;;;;;;;;;24.25;21.50;;;;;19.55;68.12;100639.41;5076397;28;45339;-65
2021/07/13 06:13:36;;;;;;;;;24.00;20.50;;;;;19.55;67.91;100636.75;5076599;27;45577;-64
2021/07/13 06:16:04;;;;;;;;;23.50;23.50;;;;;19.57;68.05;100631.34;5076680;27;45536;-64
2021/07/13 06:18:43;;;;;;;;;;;;;;;;;;;;;
2021/07/13 06:21:12;;;;;;;;;23.75;21.25;;;;;19.66;67.90;100633.44;5074479;28;70127;-63
2021/07/13 06:23:38;;;;;;;;;29.50;24.50;;;;;19.71;67.74;100631.41;5075437;27;45369;-68
2021/07/13 06:26:03;;;;;;;;;23.00;21.00;;;;;19.78;67.98;100634.53;5075251;28;45599;-64
2021/07/13 06:28:29;;;;;;;;;29.00;23.75;;;;;19.82;67.71;100634.28;5075762;28;45620;-65
2021/07/13 06:30:57;;;;;;;;;51.75;37.00;;;;;19.87;67.66;100639.31;5075489;27;45648;-64
2021/07/13 06:33:22;;;;;;;;;27.50;24.25;;;;;19.91;67.54;100640.84;5075577;27;46174;-63
2021/07/13 06:35:48;;;;;;;;;24.75;22.50;;;;;19.98;67.48;100633.34;5073855;27;45499;-61
2021/07/13 06:38:16;;;;;;;;;21.50;21.50;;;;;20.00;67.12;100642.94;5075182;27;45346;-62
2021/07/13 06:40:44;;;;;;;;;27.50;25.00;;;;;20.06;67.01;100641.69;5076115;28;45365;-63
2021/07/13 06:43:15;;;;;;;;;20.25;19.25;;;;;20.08;67.10;100635.34;5076335;27;47717;-64
2021/07/13 06:45:41;;;;;;;;;21.75;21.00;;;;;20.14;66.90;100628.78;5075955;28;45335;-64
2021/07/13 06:48:08;;;;;;;;;28.25;26.00;;;;;20.19;67.34;100625.84;5075838;27;45452;-63
2021/07/13 06:50:36;;;;;;;;;19.00;16.25;;;;;20.21;66.52;100627.44;5074786;27;48848;-63
2021/07/13 06:53:03;;;;;;;;;30.75;25.25;;;;;20.24;66.94;100627.28;5074791;28;46095;-63
2021/07/13 06:55:33;;;;;;;;;30.00;24.25;;;;;20.27;66.59;100627.09;5076532;27;45445;-64
2021/07/13 06:58:00;;;;;;;;;28.50;25.25;;;;;20.37;66.37;100627.34;5076059;28;45328;-63
2021/07/13 07:00:27;;;;;;;;;41.00;32.50;;;;;20.44;67.05;100625.16;5075935;28;45237;-63
2021/07/13 07:02:53;;;;;;;;;27.50;24.75;;;;;20.48;66.47;100616.06;5074930;27;45464;-63
2021/07/13 07:05:19;;;;;;;;;26.00;23.00;;;;;20.52;66.28;100621.09;5073195;27;45500;-63
2021/07/13 07:07:52;;;;;;;;;30.50;28.25;;;;;20.57;66.29;100616.34;5075013;28;45400;-63
2021/07/13 07:10:20;;;;;;;;;26.00;24.00;;;;;20.62;65.71;100615.19;5075162;28;45496;-63
2021/07/13 07:12:48;;;;;;;;;27.25;26.00;;;;;20.67;65.93;100621.94;5075468;27;46428;-63
2021/07/13 07:15:17;;;;;;;;;27.75;27.00;;;;;20.74;65.90;100609.09;5074179;28;45563;-63
2021/07/13 07:17:51;;;;;;;;;33.75;28.50;;;;;20.81;65.90;100602.44;5075535;27;45477;-63
2021/07/13 07:20:30;;;;;;;;;29.75;26.00;;;;;20.89;65.38;100602.75;5075010;27;45226;-63
2021/07/13 07:22:59;;;;;;;;;28.75;27.25;;;;;20.94;65.36;100599.81;5075186;28;45676;-64
2021/07/13 07:25:30;;;;;;;;;24.00;23.00;;;;;20.99;65.44;100592.38;5076083;27;46778;-63
2021/07/13 07:27:59;;;;;;;;;21.75;21.75;;;;;20.99;64.90;100595.88;5075277;28;45316;-63
2021/07/13 07:30:28;;;;;;;;;29.00;25.75;;;;;20.99;64.75;100601.19;5075057;27;45249;-63
2021/07/13 07:32:58;;;;;;;;;25.00;23.50;;;;;20.97;64.79;100608.47;5074589;27;47647;-63
2021/07/13 07:35:25;;;;;;;;;27.75;24.50;;;;;20.97;64.77;100608.47;5075094;27;45397;-63
2021/07/13 07:37:54;;;;;;;;;31.25;28.00;;;;;20.96;65.09;100605.88;5075472;28;45296;-63
2021/07/13 07:40:22;;;;;;;;;28.00;23.75;;;;;20.91;64.70;100610.66;5075913;27;45524;-63
2021/07/13 07:42:58;;;;;;;;;35.75;32.25;;;;;20.90;64.85;100622.22;5074872;27;46316;-63
2021/07/13 07:45:28;;;;;;;;;30.00;25.25;;;;;20.85;65.13;100627.84;5074420;27;45389;-63
2021/07/13 07:47:54;;;;;;;;;22.25;19.75;;;;;20.81;65.17;100636.13;5074371;27;45369;-63
2021/07/13 07:50:24;;;;;;;;;25.00;22.00;;;;;20.78;65.10;100632.75;5074814;28;45403;-63
2021/07/13 07:52:53;;;;;;;;;28.00;25.75;;;;;20.77;65.62;100633.69;5074590;28;45282;-63
2021/07/13 07:55:23;;;;;;;;;29.25;23.75;;;;;20.74;65.52;100636.53;5075625;27;45247;-62
2021/07/13 07:57:54;;;;;;;;;24.00;22.50;;;;;20.73;65.77;100645.47;5075108;27;45547;-63
2021/07/13 08:00:25;;;;;;;;;26.00;22.25;;;;;20.68;65.57;100646.72;5073448;28;45498;-62
2021/07/13 08:02:50;;;;;;;;;22.75;21.50;;;;;20.61;65.74;100642.75;5073354;28;45876;-63
2021/07/13 08:05:16;;;;;;;;;24.00;22.75;;;;;20.53;65.86;100646.72;5072819;28;45161;-62
2021/07/13 08:07:43;;;;;;;;;27.25;21.25;;;;;20.50;65.84;100646.06;5072951;28;45213;-63
2021/07/13 08:10:09;;;;;;;;;20.50;20.00;;;;;20.50;66.01;100646.91;5073380;27;45523;-63
2021/07/13 08:12:35;;;;;;;;;20.00;15.50;;;;;20.54;66.42;100647.56;5072136;27;46204;-64
2021/07/13 08:15:02;;;;;;;;;26.25;24.50;;;;;20.55;66.44;100642.19;5072859;27;45538;-63
2021/07/13 08:17:27;;;;;;;;;21.75;20.50;;;;;20.57;66.22;100645.59;5071950;28;45578;-62
2021/07/13 08:19:52;;;;;;;;;22.75;18.25;;;;;20.61;65.98;100645.41;5072088;28;45537;-63
2021/07/13 08:22:18;;;;;;;;;25.25;25.00;;;;;20.71;66.14;100650.06;5072412;27;46353;-64
2021/07/13 08:24:43;;;;;;;;;24.50;23.75;;;;;20.84;66.01;100649.25;5072023;28;45520;-63
2021/07/13 08:27:09;;;;;;;;;25.25;21.50;;;;;20.91;65.81;100658.56;5075350;28;45579;-63
2021/07/13 08:29:37;;;;;;;;;23.00;19.75;;;;;20.96;65.59;100656.44;5075257;27;47159;-64
2021/07/13 08:32:04;;;;;;;;;20.75;17.25;;;;;21.01;65.25;100651.66;5059751;28;46388;-64
2021/07/13 08:34:36;;;;;;;;;22.25;21.50;;;;;21.03;65.20;100655.09;5078705;27;45429;-64
2021/07/13 08:37:13;;;;;;;;;23.50;19.75;;;;;20.98;64.98;100655.38;5078285;27;45381;-63
2021/07/13 08:39:41;;;;;;;;;25.25;24.50;;;;;20.92;65.19;100658.44;5076976;27;45592;-63
2021/07/13 08:42:19;;;;;;;;;22.25;18.25;;;;;20.91;65.11;100645.25;5077502;27;45608;-63
2021/07/13 08:44:50;;;;;;;;;26.75;15.00;;;;;20.91;65.43;100650.56;5077543;27;45396;-63
2021/07/13 08:47:27;;;;;;;;;26.25;20.75;;;;;20.92;65.57;100649.59;5078013;27;45303;-63
2021/07/13 08:49:57;;;;;;;;;18.00;18.00;;;;;20.95;65.75;100654.72;5077801;28;45426;-63
2021/07/13 08:52:29;;;;;;;;;17.00;16.00;;;;;20.95;65.42;100655.59;5078267;27;47376;-63
2021/07/13 08:54:59;;;;;;;;;19.25;17.00;;;;;20.99;65.76;100649.09;5077521;27;45492;-64
2021/07/13 08:57:26;;;;;;;;;22.75;20.50;;;;;21.06;65.58;100643.38;5076779;27;45344;-63
2021/07/13 08:59:52;;;;;;;;;21.00;17.00;;;;;21.08;65.62;100650.31;5076837;27;45424;-64
2021/07/13 09:02:17;;;;;;;;;16.25;15.50;;;;;21.14;65.32;100651.72;5075878;27;46682;-63
2021/07/13 09:04:44;;;;;;;;;19.50;18.75;;;;;21.16;65.17;100647.16;5071628;28;45420;-64
2021/07/13 09:07:09;;;;;;;;;17.00;15.00;;;;;21.17;65.12;100654.19;5075285;27;45381;-64
2021/07/13 09:09:38;;;;;;;;;19.50;19.25;;;;;21.16;65.09;100658.63;5074696;27;46364;-65
2021/07/13 09:12:15;;;;;;;;;17.50;16.50;;;;;21.19;65.23;100660.28;5075587;27;47739;-64
2021/07/13 09:14:57;;;;;;;;;22.00;21.50;;;;;21.24;65.18;100665.25;5074812;27;45374;-64
2021/07/13 09:17:25;;;;;;;;;20.00;18.25;;;;;21.26;65.29;100666.03;5075380;27;45474;-65
2021/07/13 09:20:01;;;;;;;;;18.50;13.75;;;;;21.29;64.86;100660.50;5075214;28;45353;-64
2021/07/13 09:22:27;;;;;;;;;18.75;17.25;;;;;21.34;65.10;100669.03;5075241;27;47495;-65
2021/07/13 09:24:54;;;;;;;;;15.00;15.00;;;;;21.33;65.13;100668.19;5074708;27;45652;-64
2021/07/13 09:27:19;;;;;;;;;17.25;16.00;;;;;21.31;65.34;100667.44;5074544;27;45443;-64
2021/07/13 09:29:47;;;;;;;;;16.00;16.00;;;;;21.25;65.10;100677.63;5074684;28;45593;-64
2021/07/13 09:32:29;;;;;;;;;15.00;15.00;;;;;21.16;65.55;100679.09;5074484;27;46343;-65
2021/07/13 09:35:09;;;;;;;;;20.00;20.00;;;;;21.08;65.79;100671.59;5074653;27;45401;-66
2021/07/13 09:37:35;;;;;;;;;19.75;18.25;;;;;21.01;66.23;100683.59;5070716;28;45512;-65
2021/07/13 09:40:05;;;;;;;;;23.75;17.50;;;;;20.91;66.52;100682.50;5075349;28;45481;-65
2021/07/13 09:42:33;;;;;;;;;22.00;19.25;;;;;20.86;66.66;100679.28;5074577;27;45398;-65
2021/07/13 09:45:18;;;;;;;;;21.25;20.25;;;;;20.86;67.54;100685.44;5073536;28;45530;-65
2021/07/13 09:47:44;;;;;;;;;29.25;26.50;;;;;20.90;67.52;100694.06;5074269;27;45315;-65
2021/07/13 09:50:11;;;;;;;;;25.25;25.25;;;;;20.97;67.43;100684.75;5074559;27;45595;-65
2021/07/13 09:52:37;;;;;;;;;27.25;23.00;;;;;21.07;67.36;100682.34;5074887;28;47462;-64
2021/07/13 09:55:17;;;;;;;;;22.50;19.50;;;;;21.27;67.62;100689.03;5074271;27;45981;-64
2021/07/13 09:57:43;;;;;;;;;22.75;20.00;;;;;21.48;67.23;100692.97;5074289;27;45494;-64
2021/07/13 10:00:10;;;;;;;;;24.25;19.50;;;;;21.68;66.94;100696.97;5073530;27;45548;-64
2021/07/13 10:02:35;;;;;;;;;19.25;18.25;;;;;21.84;66.82;100689.63;5074570;27;48549;-64
2021/07/13 10:05:03;;;;;;;;;20.75;18.50;;;;;21.99;66.57;100694.88;5072617;28;45471;-64
2021/07/13 10:07:30;;;;;;;;;25.25;21.50;;;;;22.09;65.95;100695.09;5075289;27;45353;-64
2021/07/13 10:09:59;;;;;;;;;23.25;20.25;;;;;22.13;65.59;100693.94;5074219;28;45370;-64
2021/07/13 10:12:26;;;;;;;;;21.75;19.50;;;;;22.20;65.90;100695.22;5074111;27;45495;-64
2021/07/13 10:14:57;;;;;;;;;22.00;17.25;;;;;22.25;65.40;100691.28;5074077;28;45594;-65
2021/07/13 10:17:28;;;;;;;;;23.00;20.25;;;;;22.33;65.01;100690.75;5074874;27;45445;-65
2021/07/13 10:19:59;;;;;;;;;17.75;17.25;;;;;22.46;65.20;100691.59;5072523;28;45362;-65
2021/07/13 10:22:26;;;;;;;;;22.00;19.50;;;;;22.58;64.94;100689.88;5074822;27;46361;-63
2021/07/13 10:24:57;;;;;;;;;18.00;18.00;;;;;22.61;64.26;100694.13;5073649;27;45380;-65
2021/07/13 10:27:48;;;;;;;;;21.50;21.00;;;;;22.63;64.92;100695.72;5073729;27;45623;-64
2021/07/13 10:30:17;;;;;;;;;23.50;22.50;;;;;22.66;64.34;100694.66;5073558;27;45517;-63
2021/07/13 10:32:43;;;;;;;;;25.50;24.25;;;;;22.60;64.34;100695.09;5073573;27;45465;-65
2021/07/13 10:35:23;;;;;;;;;18.50;18.25;;;;;22.54;64.68;100701.72;5073732;27;45657;-65
2021/07/13 10:37:51;;;;;;;;;22.50;20.75;;;;;22.50;64.70;100699.38;5073369;28;45366;-65
2021/07/13 10:40:25;;;;;;;;;29.00;27.00;;;;;22.48;64.65;100691.50;5074278;27;45544;-63
2021/07/13 10:42:53;;;;;;;;;23.25;21.25;;;;;22.47;64.98;100700.44;5073115;27;45421;-64
2021/07/13 10:45:46;;;;;;;;;17.75;15.25;;;;;22.42;64.99;100711.44;5073423;27;45411;-64
2021/07/13 10:48:13;;;;;;;;;18.50;17.00;;;;;22.39;65.05;100701.00;5071622;28;45450;-66
2021/07/13 10:50:43;;;;;;;;;25.75;24.50;;;;;22.33;65.29;100706.75;5073711;27;45329;-65
2021/07/13 10:53:17;;;;;;;;;23.25;20.25;;;;;22.28;65.13;100698.22;5073326;28;46118;-65
2021/07/13 10:55:47;;;;;;;;;27.25;25.25;;;;;22.31;65.53;100697.13;5072500;28;45324;-64
2021/07/13 10:58:14;;;;;;;;;20.50;20.00;;;;;22.34;64.91;100689.78;5074517;27;45495;-64
2021/07/13 11:00:56;;;;;;;;;18.00;16.50;;;;;22.43;65.10;100690.97;5073093;28;45462;-64
2021/07/13 11:03:27;;;;;;;;;16.00;15.25;;;;;22.51;65.04;100687.75;5073351;27;46177;-64
2021/07/13 11:06:03;;;;;;;;;19.25;17.50;;;;;22.54;65.25;100685.69;5073250;27;45528;-65
2021/07/13 11:08:47;;;;;;;;;16.75;16.75;;;;;22.58;64.58;100683.69;5073045;27;45964;-64
2021/07/13 11:11:18;;;;;;;;;17.50;16.50;;;;;22.59;64.53;100693.38;5057835;28;45510;-64
2021/07/13 11:13:46;;;;;;;;;17.75;14.50;;;;;22.57;64.50;100701.50;5073155;27;46507;-64
2021/07/13 11:16:21;;;;;;;;;20.00;16.75;;;;;22.51;64.75;100696.59;5073887;27;45521;-65
2021/07/13 11:18:46;;;;;;;;;25.00;21.00;;;;;22.43;65.30;100701.63;5073418;28;45406;-65